sensor_id;sensor_type;location;lat;lon;timestamp;temperature;humidity
14775;DHT22;7479;47.042;15.160;2022-08-19T06:17:37;20.90;99.90
14775;DHT22;7479;47.042;15.160;2022-08-19T06:22:30;21.00;99.90
14775;DHT22;7479;47.042;15.160;2022-08-19T06:27:24;21.20;99.90
14775;DHT22;7479;47.042;15.160;2022-08-19T06:32:18;21.40;99.90
14775;DHT22;7479;47.042;15.160;2022-08-19T06:37:13;21.60;99.90
14775;DHT22;7479;47.042;15.160;2022-08-19T06:42:07;21.90;99.90
14775;DHT22;7479;47.042;15.160;2022-08-19T06:47:06;22.20;99.90
14775;DHT22;7479;47.042;15.160;2022-08-19T06:52:06;22.20;99.90
14775;DHT22;7479;47.042;15.160;2022-08-19T07:36:57;20.40;99.90
14775;DHT22;7479;47.042;15.160;2022-08-19T07:41:51;20.40;99.90
14775;DHT22;7479;47.042;15.160;2022-08-19T07:46:47;20.60;99.90
14775;DHT22;7479;47.042;15.160;2022-08-19T07:51:45;20.70;99.90
14775;DHT22;7479;47.042;15.160;2022-08-19T07:56:40;20.80;99.90
14775;DHT22;7479;47.042;15.160;2022-08-19T08:01:34;20.90;99.90
14775;DHT22;7479;47.042;15.160;2022-08-19T08:06:33;21.10;99.90
14775;DHT22;7479;47.042;15.160;2022-08-19T08:11:48;21.30;99.90
14775;DHT22;7479;47.042;15.160;2022-08-19T08:16:42;21.40;99.90
14775;DHT22;7479;47.042;15.160;2022-08-19T08:21:38;21.80;99.90
14775;DHT22;7479;47.042;15.160;2022-08-19T08:26:36;22.10;99.90
14775;DHT22;7479;47.042;15.160;2022-08-19T08:31:40;22.20;99.90
14775;DHT22;7479;47.042;15.160;2022-08-19T08:36:36;22.20;99.90
14775;DHT22;7479;47.042;15.160;2022-08-19T08:41:40;22.20;99.90
14775;DHT22;7479;47.042;15.160;2022-08-19T08:46:39;22.30;99.90
14775;DHT22;7479;47.042;15.160;2022-08-19T08:51:38;22.70;99.90
14775;DHT22;7479;47.042;15.160;2022-08-19T08:56:33;23.00;99.90
14775;DHT22;7479;47.042;15.160;2022-08-19T09:01:27;23.50;99.90
14775;DHT22;7479;47.042;15.160;2022-08-19T09:06:28;23.60;99.90
14775;DHT22;7479;47.042;15.160;2022-08-19T09:11:35;23.50;99.90
14775;DHT22;7479;47.042;15.160;2022-08-19T09:16:35;23.60;99.90
14775;DHT22;7479;47.042;15.160;2022-08-19T09:21:33;23.80;99.90
14775;DHT22;7479;47.042;15.160;2022-08-19T09:26:32;24.20;99.90
14775;DHT22;7479;47.042;15.160;2022-08-19T09:31:42;24.60;99.90
14775;DHT22;7479;47.042;15.160;2022-08-19T09:36:37;25.10;99.90
14775;DHT22;7479;47.042;15.160;2022-08-19T09:41:31;25.20;99.90
14775;DHT22;7479;47.042;15.160;2022-08-19T09:46:27;25.10;99.90
14775;DHT22;7479;47.042;15.160;2022-08-19T09:51:24;25.00;99.90
14775;DHT22;7479;47.042;15.160;2022-08-19T09:56:22;25.20;99.90
14775;DHT22;7479;47.042;15.160;2022-08-19T10:01:17;25.80;99.90
14775;DHT22;7479;47.042;15.160;2022-08-19T10:06:11;26.30;99.90
14775;DHT22;7479;47.042;15.160;2022-08-19T10:11:06;26.40;99.90
14775;DHT22;7479;47.042;15.160;2022-08-19T10:16:23;26.50;99.90
14775;DHT22;7479;47.042;15.160;2022-08-19T10:21:23;26.90;99.90
14775;DHT22;7479;47.042;15.160;2022-08-19T10:26:18;27.00;99.90
14775;DHT22;7479;47.042;15.160;2022-08-19T10:31:14;27.00;99.90
14775;DHT22;7479;47.042;15.160;2022-08-19T10:36:15;26.90;99.90
14775;DHT22;7479;47.042;15.160;2022-08-19T10:41:11;26.80;99.90
14775;DHT22;7479;47.042;15.160;2022-08-19T10:46:06;26.60;99.90
14775;DHT22;7479;47.042;15.160;2022-08-19T10:51:08;26.50;99.90
14775;DHT22;7479;47.042;15.160;2022-08-19T10:56:21;26.60;99.90
14775;DHT22;7479;47.042;15.160;2022-08-19T11:01:33;26.60;99.90
14775;DHT22;7479;47.042;15.160;2022-08-19T11:06:27;26.40;99.90
14775;DHT22;7479;47.042;15.160;2022-08-19T11:11:23;26.30;99.90
14775;DHT22;7479;47.042;15.160;2022-08-19T11:16:18;26.50;99.90
14775;DHT22;7479;47.042;15.160;2022-08-19T11:21:16;26.80;99.90
14775;DHT22;7479;47.042;15.160;2022-08-19T11:26:11;27.40;99.90
14775;DHT22;7479;47.042;15.160;2022-08-19T11:31:09;27.90;99.90
14775;DHT22;7479;47.042;15.160;2022-08-19T11:36:04;27.80;99.90
14775;DHT22;7479;47.042;15.160;2022-08-19T11:40:59;27.40;99.90
14775;DHT22;7479;47.042;15.160;2022-08-19T11:45:53;27.70;99.90
14775;DHT22;7479;47.042;15.160;2022-08-19T11:50:49;28.70;99.40
14775;DHT22;7479;47.042;15.160;2022-08-19T11:55:43;29.30;97.20
14775;DHT22;7479;47.042;15.160;2022-08-19T12:00:38;29.90;95.90
14775;DHT22;7479;47.042;15.160;2022-08-19T12:05:36;30.00;94.60
14775;DHT22;7479;47.042;15.160;2022-08-19T12:10:31;30.20;95.10
14775;DHT22;7479;47.042;15.160;2022-08-19T12:15:26;30.50;93.30
14775;DHT22;7479;47.042;15.160;2022-08-19T12:20:28;30.60;91.90
14775;DHT22;7479;47.042;15.160;2022-08-19T12:25:21;31.10;91.40
14775;DHT22;7479;47.042;15.160;2022-08-19T12:30:16;31.50;90.00
14775;DHT22;7479;47.042;15.160;2022-08-19T12:35:10;31.40;87.60
14775;DHT22;7479;47.042;15.160;2022-08-19T12:40:04;31.40;89.30
14775;DHT22;7479;47.042;15.160;2022-08-19T12:44:58;31.70;85.50
14775;DHT22;7479;47.042;15.160;2022-08-19T12:49:53;32.20;84.30
14775;DHT22;7479;47.042;15.160;2022-08-19T12:54:48;32.40;82.00
14775;DHT22;7479;47.042;15.160;2022-08-19T12:59:45;32.50;81.50
14775;DHT22;7479;47.042;15.160;2022-08-19T13:04:39;32.40;80.90
14775;DHT22;7479;47.042;15.160;2022-08-19T13:09:35;32.10;80.60
14775;DHT22;7479;47.042;15.160;2022-08-19T13:14:29;32.60;81.30
14775;DHT22;7479;47.042;15.160;2022-08-19T13:19:24;32.80;77.90
14775;DHT22;7479;47.042;15.160;2022-08-19T13:24:18;32.10;77.80
14775;DHT22;7479;47.042;15.160;2022-08-19T13:29:18;31.80;80.10
14775;DHT22;7479;47.042;15.160;2022-08-19T13:34:35;32.50;78.60
14775;DHT22;7479;47.042;15.160;2022-08-19T13:39:29;33.30;75.80
14775;DHT22;7479;47.042;15.160;2022-08-19T13:44:24;33.40;74.20
14775;DHT22;7479;47.042;15.160;2022-08-19T13:49:18;33.10;73.50
14775;DHT22;7479;47.042;15.160;2022-08-19T13:54:12;33.40;75.60
14775;DHT22;7479;47.042;15.160;2022-08-19T13:59:06;33.50;72.50
14775;DHT22;7479;47.042;15.160;2022-08-19T14:04:01;33.20;73.30
14775;DHT22;7479;47.042;15.160;2022-08-19T14:08:55;33.50;72.70
14775;DHT22;7479;47.042;15.160;2022-08-19T14:13:49;33.20;73.50
14775;DHT22;7479;47.042;15.160;2022-08-19T14:18:42;33.80;73.00
14775;DHT22;7479;47.042;15.160;2022-08-19T14:23:38;34.20;70.50
14775;DHT22;7479;47.042;15.160;2022-08-19T14:28:31;34.00;69.80
14775;DHT22;7479;47.042;15.160;2022-08-19T14:33:25;33.60;70.90
14775;DHT22;7479;47.042;15.160;2022-08-19T14:38:21;33.80;71.60
14775;DHT22;7479;47.042;15.160;2022-08-19T14:43:24;33.10;71.30
14775;DHT22;7479;47.042;15.160;2022-08-19T14:48:18;32.40;74.20
14775;DHT22;7479;47.042;15.160;2022-08-19T14:53:19;32.50;74.00
14775;DHT22;7479;47.042;15.160;2022-08-19T14:58:14;31.80;76.50
14775;DHT22;7479;47.042;15.160;2022-08-19T15:03:22;31.00;77.40
14775;DHT22;7479;47.042;15.160;2022-08-19T15:08:15;30.50;80.00
14775;DHT22;7479;47.042;15.160;2022-08-19T15:13:09;30.00;81.90
14775;DHT22;7479;47.042;15.160;2022-08-19T15:18:03;29.90;83.50
14775;DHT22;7479;47.042;15.160;2022-08-19T15:22:58;29.80;81.80
14775;DHT22;7479;47.042;15.160;2022-08-19T15:27:52;29.80;83.40
14775;DHT22;7479;47.042;15.160;2022-08-19T15:32:46;29.50;84.30
14775;DHT22;7479;47.042;15.160;2022-08-19T15:37:40;29.20;86.10
14775;DHT22;7479;47.042;15.160;2022-08-19T15:42:37;28.90;87.30
14775;DHT22;7479;47.042;15.160;2022-08-19T15:47:36;28.70;88.90
14775;DHT22;7479;47.042;15.160;2022-08-19T15:52:30;28.40;89.90
14775;DHT22;7479;47.042;15.160;2022-08-19T15:57:24;28.20;91.20
14775;DHT22;7479;47.042;15.160;2022-08-19T16:02:36;27.80;91.80
14775;DHT22;7479;47.042;15.160;2022-08-19T16:07:50;27.70;92.40
14775;DHT22;7479;47.042;15.160;2022-08-19T16:12:43;27.60;93.20
14775;DHT22;7479;47.042;15.160;2022-08-19T16:17:39;27.30;93.70
14775;DHT22;7479;47.042;15.160;2022-08-19T16:22:33;27.10;94.70
14775;DHT22;7479;47.042;15.160;2022-08-19T16:27:27;27.10;95.20
14775;DHT22;7479;47.042;15.160;2022-08-19T16:32:21;27.00;95.00
14775;DHT22;7479;47.042;15.160;2022-08-19T16:37:17;27.00;95.70
14775;DHT22;7479;47.042;15.160;2022-08-19T16:42:13;27.10;96.30
14775;DHT22;7479;47.042;15.160;2022-08-19T16:47:07;27.20;97.00
14775;DHT22;7479;47.042;15.160;2022-08-19T16:52:00;27.00;98.50
14775;DHT22;7479;47.042;15.160;2022-08-19T16:56:56;26.70;99.90
14775;DHT22;7479;47.042;15.160;2022-08-19T17:01:49;26.60;99.90
14775;DHT22;7479;47.042;15.160;2022-08-19T17:06:45;26.30;99.90
14775;DHT22;7479;47.042;15.160;2022-08-19T17:11:39;26.00;99.90
14775;DHT22;7479;47.042;15.160;2022-08-19T17:16:36;25.80;99.90
14775;DHT22;7479;47.042;15.160;2022-08-19T17:21:32;26.00;99.90
14775;DHT22;7479;47.042;15.160;2022-08-19T17:26:27;26.60;99.90
14775;DHT22;7479;47.042;15.160;2022-08-19T17:31:23;26.50;99.90
14775;DHT22;7479;47.042;15.160;2022-08-19T17:36:19;26.00;99.90
14775;DHT22;7479;47.042;15.160;2022-08-19T17:41:14;26.30;99.90
14775;DHT22;7479;47.042;15.160;2022-08-19T17:46:08;25.70;99.90
14775;DHT22;7479;47.042;15.160;2022-08-19T17:51:13;25.10;99.90
14775;DHT22;7479;47.042;15.160;2022-08-19T17:56:09;24.70;99.90
14775;DHT22;7479;47.042;15.160;2022-08-19T18:01:04;24.40;99.90
14775;DHT22;7479;47.042;15.160;2022-08-19T18:06:01;24.10;99.90
14775;DHT22;7479;47.042;15.160;2022-08-19T18:10:54;23.90;99.90
14775;DHT22;7479;47.042;15.160;2022-08-19T18:15:50;23.70;99.90
14775;DHT22;7479;47.042;15.160;2022-08-19T18:20:44;23.50;99.90
14775;DHT22;7479;47.042;15.160;2022-08-19T18:25:38;23.40;99.90
14775;DHT22;7479;47.042;15.160;2022-08-19T18:30:34;23.30;99.90
14775;DHT22;7479;47.042;15.160;2022-08-19T18:35:30;23.10;99.90
14775;DHT22;7479;47.042;15.160;2022-08-19T18:40:25;23.00;99.90
14775;DHT22;7479;47.042;15.160;2022-08-19T18:45:36;23.00;99.90
14775;DHT22;7479;47.042;15.160;2022-08-19T18:50:49;23.00;99.90
14775;DHT22;7479;47.042;15.160;2022-08-19T18:55:43;23.00;99.90
14775;DHT22;7479;47.042;15.160;2022-08-19T19:00:40;23.00;99.90
14775;DHT22;7479;47.042;15.160;2022-08-19T19:05:34;22.70;99.90
14775;DHT22;7479;47.042;15.160;2022-08-19T19:10:32;22.60;99.90
14775;DHT22;7479;47.042;15.160;2022-08-19T19:15:26;22.60;99.90
14775;DHT22;7479;47.042;15.160;2022-08-19T19:20:20;22.70;99.90
14775;DHT22;7479;47.042;15.160;2022-08-19T19:25:27;22.70;99.90
14775;DHT22;7479;47.042;15.160;2022-08-19T19:30:42;22.70;99.90
14775;DHT22;7479;47.042;15.160;2022-08-19T19:35:36;22.60;99.90
14775;DHT22;7479;47.042;15.160;2022-08-19T19:40:36;22.50;99.90
14775;DHT22;7479;47.042;15.160;2022-08-19T19:45:30;22.30;99.90
